createdAt,value
2019-02-26T00:02:04.249Z,2.50
2019-02-26T00:04:35.095Z,2.50
2019-02-26T00:07:04.442Z,2.40
2019-02-26T00:09:35.303Z,2.40
2019-02-26T00:12:05.112Z,2.40
2019-02-26T00:14:34.372Z,1.90
2019-02-26T00:17:06.362Z,2.30
2019-02-26T00:19:34.590Z,2.30
2019-02-26T00:22:04.552Z,2.30
2019-02-26T00:24:35.320Z,2.30
2019-02-26T00:27:05.493Z,2.30
2019-02-26T00:29:35.691Z,2.20
2019-02-26T00:32:07.121Z,2.20
2019-02-26T00:34:38.948Z,2.20
2019-02-26T00:37:08.506Z,2.20
2019-02-26T00:39:37.865Z,2.10
2019-02-26T00:42:07.113Z,2.10
2019-02-26T00:44:37.351Z,2.10
2019-02-26T00:47:07.176Z,2.10
2019-02-26T00:49:37.622Z,2.10
2019-02-26T00:52:08.489Z,2.10
2019-02-26T00:54:37.786Z,2.10
2019-02-26T00:57:08.700Z,2.00
2019-02-26T00:59:38.794Z,2.00
2019-02-26T01:02:08.977Z,2.00
2019-02-26T01:04:39.073Z,1.90
2019-02-26T01:07:09.009Z,1.90
2019-02-26T01:09:38.247Z,1.90
2019-02-26T01:12:09.206Z,1.90
2019-02-26T01:14:39.234Z,1.90
2019-02-26T01:17:09.990Z,1.90
2019-02-26T01:19:40.716Z,1.90
2019-02-26T01:22:11.249Z,1.90
2019-02-26T01:24:40.502Z,1.90
2019-02-26T01:27:09.728Z,1.90
2019-02-26T01:29:38.966Z,1.90
2019-02-26T01:32:11.006Z,1.90
2019-02-26T01:34:40.498Z,1.80
2019-02-26T01:37:12.001Z,1.80
2019-02-26T01:39:42.953Z,1.80
2019-02-26T01:42:13.327Z,1.80
2019-02-26T01:44:44.478Z,1.70
2019-02-26T01:47:13.873Z,1.70
2019-02-26T01:49:44.169Z,1.70
2019-02-26T01:52:15.082Z,1.70
2019-02-26T01:54:44.964Z,1.60
2019-02-26T01:57:14.204Z,1.60
2019-02-26T01:59:43.446Z,1.60
2019-02-26T02:02:17.373Z,1.60
2019-02-26T02:04:43.602Z,1.60
2019-02-26T02:07:12.833Z,1.60
2019-02-26T02:09:42.085Z,1.60
2019-02-26T02:12:11.326Z,1.60
2019-02-26T02:14:40.565Z,1.60
2019-02-26T02:17:10.978Z,1.60
2019-02-26T02:19:40.762Z,1.60
2019-02-26T02:22:11.777Z,1.60
2019-02-26T02:24:43.466Z,1.60
2019-02-26T02:27:12.618Z,1.60
2019-02-26T02:29:45.724Z,1.50
2019-02-26T02:32:13.796Z,1.50
2019-02-26T02:34:43.213Z,1.50
2019-02-26T02:37:12.524Z,1.40
2019-02-26T02:39:41.834Z,1.40
2019-02-26T02:42:13.335Z,1.40
2019-02-26T02:44:44.479Z,1.40
2019-02-26T02:47:12.930Z,1.40
2019-02-26T02:49:44.257Z,1.40
2019-02-26T02:52:13.073Z,1.40
2019-02-26T02:54:44.193Z,1.40
2019-02-26T02:57:13.243Z,1.40
2019-02-26T02:59:42.498Z,1.40
2019-02-26T03:02:14.378Z,1.40
2019-02-26T03:04:43.053Z,1.40
2019-02-26T03:07:12.351Z,1.30
2019-02-26T03:09:43.302Z,1.30
2019-02-26T03:12:12.532Z,1.30
2019-02-26T03:14:44.077Z,1.30
2019-02-26T03:17:14.727Z,1.30
2019-02-26T03:19:44.065Z,1.30
2019-02-26T03:22:15.266Z,1.30
2019-02-26T03:24:44.292Z,1.30
2019-02-26T03:27:13.527Z,1.30
2019-02-26T03:29:42.786Z,1.30
2019-02-26T03:32:12.091Z,1.30
2019-02-26T03:34:41.395Z,1.20
2019-02-26T03:37:11.133Z,1.20
2019-02-26T03:39:40.562Z,1.20
2019-02-26T03:42:10.660Z,1.20
2019-02-26T03:44:40.878Z,1.10
2019-02-26T03:47:10.140Z,1.10
2019-02-26T03:49:41.771Z,1.10
2019-02-26T03:52:10.377Z,1.10
2019-02-26T03:54:40.315Z,1.10
2019-02-26T03:57:11.396Z,1.10
2019-02-26T03:59:41.579Z,1.00
2019-02-26T04:02:12.040Z,1.00
2019-02-26T04:04:42.080Z,1.00
2019-02-26T04:07:11.492Z,1.00
2019-02-26T04:09:42.270Z,1.00
2019-02-26T04:12:13.572Z,1.00
2019-02-26T04:14:43.043Z,1.00
2019-02-26T04:17:12.391Z,1.00
2019-02-26T04:19:44.466Z,0.90
2019-02-26T04:22:26.485Z,0.90
2019-02-26T04:25:01.469Z,0.90
2019-02-26T04:27:47.406Z,0.90
2019-02-26T04:30:52.427Z,0.90
2019-02-26T04:33:39.238Z,0.90
2019-02-26T04:36:17.496Z,0.90
2019-02-26T04:39:10.657Z,0.90
2019-02-26T04:41:57.701Z,0.90
2019-02-26T04:44:38.953Z,0.90
2019-02-26T04:47:09.421Z,0.90
2019-02-26T04:49:42.480Z,0.90
2019-02-26T04:52:10.910Z,0.90
2019-02-26T04:54:40.623Z,0.90
2019-02-26T04:57:09.879Z,0.90
2019-02-26T04:59:41.323Z,0.90
2019-02-26T05:02:10.166Z,1.00
2019-02-26T05:04:40.090Z,1.00
2019-02-26T05:07:13.463Z,1.00
2019-02-26T05:09:41.640Z,1.00
2019-02-26T05:12:10.890Z,1.00
2019-02-26T05:14:40.117Z,0.90
2019-02-26T05:17:09.347Z,0.90
2019-02-26T05:19:39.599Z,0.90
2019-02-26T05:22:09.544Z,0.90
2019-02-26T05:24:41.631Z,0.90
2019-02-26T05:27:19.655Z,0.90
2019-02-26T05:29:49.179Z,0.90
2019-02-26T05:32:21.263Z,1.00
2019-02-26T05:34:50.825Z,1.00
2019-02-26T05:37:20.486Z,1.00
2019-02-26T05:39:51.698Z,1.00
2019-02-26T05:42:20.707Z,1.00
2019-02-26T05:44:53.751Z,1.00
2019-02-26T05:47:21.974Z,1.00
2019-02-26T05:49:51.808Z,1.00
2019-02-26T05:52:21.903Z,1.00
2019-02-26T05:54:52.686Z,0.90
2019-02-26T05:57:27.652Z,0.90
2019-02-26T05:59:53.024Z,0.90
2019-02-26T06:02:24.444Z,0.90
2019-02-26T06:04:53.235Z,0.90
2019-02-26T06:07:25.109Z,0.90
2019-02-26T06:09:56.171Z,0.80
2019-02-26T06:12:24.392Z,0.80
2019-02-26T06:14:54.945Z,0.80
2019-02-26T06:17:24.604Z,0.70
2019-02-26T06:19:57.031Z,0.70
2019-02-26T06:22:27.173Z,0.70
2019-02-26T06:24:59.571Z,0.70
2019-02-26T06:27:28.054Z,0.70
2019-02-26T06:29:58.156Z,0.80
2019-02-26T06:32:31.981Z,0.80
2019-02-26T06:34:59.172Z,0.90
2019-02-26T06:37:30.828Z,0.90
2019-02-26T06:40:00.660Z,0.90
2019-02-26T06:42:31.642Z,1.00
2019-02-26T06:45:03.423Z,1.00
2019-02-26T06:47:33.314Z,1.00
2019-02-26T06:50:03.019Z,1.00
2019-02-26T06:52:37.145Z,1.10
2019-02-26T06:55:07.787Z,1.10
2019-02-26T06:57:38.817Z,1.10
2019-02-26T07:00:16.230Z,1.20
2019-02-26T07:02:46.209Z,1.20
2019-02-26T07:05:15.883Z,1.30
2019-02-26T07:07:45.187Z,1.40
2019-02-26T07:10:21.478Z,1.40
2019-02-26T07:12:50.248Z,1.50
2019-02-26T07:15:18.984Z,1.60
2019-02-26T07:17:48.294Z,1.60
2019-02-26T07:20:17.514Z,1.70
2019-02-26T07:22:49.251Z,1.70
2019-02-26T07:25:18.628Z,1.80
2019-02-26T07:27:48.118Z,1.80
2019-02-26T07:30:17.462Z,1.80
2019-02-26T07:32:48.231Z,1.80
2019-02-26T07:35:17.733Z,1.90
2019-02-26T07:37:46.970Z,2.00
2019-02-26T07:40:18.583Z,2.00
2019-02-26T07:42:49.287Z,2.10
2019-02-26T07:45:21.917Z,2.20
2019-02-26T07:47:50.941Z,2.30
2019-02-26T07:50:20.080Z,2.40
2019-02-26T07:52:50.316Z,2.60
2019-02-26T07:55:20.246Z,2.60
2019-02-26T07:57:51.207Z,2.70
2019-02-26T08:00:24.455Z,2.80
2019-02-26T08:02:56.428Z,2.90
2019-02-26T08:05:28.316Z,3.00
2019-02-26T08:07:56.560Z,3.10
2019-02-26T08:10:26.133Z,3.30
2019-02-26T08:12:56.622Z,3.40
2019-02-26T08:15:27.780Z,3.50
2019-02-26T08:17:59.942Z,3.50
2019-02-26T08:20:30.226Z,3.60
2019-02-26T08:23:01.220Z,3.70
2019-02-26T08:25:30.365Z,3.80
2019-02-26T08:28:01.316Z,3.80
2019-02-26T08:30:30.799Z,3.90
2019-02-26T08:33:02.670Z,3.90
2019-02-26T08:35:31.025Z,4.10
2019-02-26T08:38:00.266Z,4.20
2019-02-26T08:40:29.513Z,4.20
2019-02-26T08:42:58.763Z,4.30
2019-02-26T08:45:28.013Z,4.30
2019-02-26T08:47:57.252Z,4.30
2019-02-26T08:50:28.522Z,4.30
2019-02-26T08:52:58.553Z,4.30
2019-02-26T08:55:28.029Z,4.30
2019-02-26T08:57:57.295Z,4.30
2019-02-26T09:00:26.659Z,4.20
2019-02-26T09:02:56.632Z,4.20
2019-02-26T09:05:28.242Z,4.20
2019-02-26T09:07:57.280Z,4.20
2019-02-26T09:10:26.503Z,4.30
2019-02-26T09:12:55.819Z,4.30
2019-02-26T09:15:25.142Z,4.40
2019-02-26T09:17:54.353Z,4.60
2019-02-26T09:20:23.603Z,4.80
2019-02-26T09:22:54.499Z,4.90
2019-02-26T09:25:26.124Z,5.00
2019-02-26T09:27:54.747Z,5.20
2019-02-26T09:30:24.001Z,5.30
2019-02-26T09:32:53.250Z,5.40
2019-02-26T09:35:26.923Z,5.50
2019-02-26T09:37:57.702Z,5.60
2019-02-26T09:40:26.571Z,5.60
2019-02-26T09:42:58.200Z,5.70
2019-02-26T09:45:29.904Z,5.70
2019-02-26T09:48:01.111Z,5.80
2019-02-26T09:50:30.327Z,5.90
2019-02-26T09:52:59.559Z,5.90
2019-02-26T09:55:28.810Z,6.00
2019-02-26T09:57:58.158Z,6.00
2019-02-26T10:00:29.504Z,6.00
2019-02-26T10:02:58.338Z,6.10
2019-02-26T10:05:27.584Z,6.10
2019-02-26T10:07:59.451Z,6.10
2019-02-26T10:10:30.843Z,6.20
2019-02-26T10:13:01.478Z,6.30
2019-02-26T10:15:29.823Z,6.30
2019-02-26T10:18:01.399Z,6.40
2019-02-26T10:20:31.792Z,6.50
2019-02-26T10:23:05.622Z,6.50
2019-02-26T10:25:34.996Z,6.60
2019-02-26T10:28:06.130Z,6.70
2019-02-26T10:30:38.272Z,6.70
2019-02-26T10:33:07.251Z,6.80
2019-02-26T10:35:38.680Z,6.90
2019-02-26T10:38:10.699Z,7.00
2019-02-26T10:40:50.783Z,7.10
2019-02-26T10:43:09.381Z,7.10
2019-02-26T10:45:41.586Z,7.20
2019-02-26T10:48:09.674Z,7.30
2019-02-26T10:50:40.369Z,7.40
2019-02-26T10:53:13.157Z,7.50
2019-02-26T10:55:41.824Z,7.70
2019-02-26T10:58:13.228Z,7.80
2019-02-26T11:00:43.262Z,7.80
2019-02-26T11:03:14.881Z,7.90
2019-02-26T11:05:45.220Z,8.00
2019-02-26T11:08:29.653Z,8.10
2019-02-26T11:10:57.960Z,8.20
2019-02-26T11:13:27.205Z,8.20
2019-02-26T11:15:58.883Z,8.30
2019-02-26T11:18:27.402Z,8.40
2019-02-26T11:20:59.155Z,8.50
2019-02-26T11:23:31.117Z,8.60
2019-02-26T11:25:58.551Z,8.70
2019-02-26T11:28:32.626Z,8.90
2019-02-26T11:30:58.816Z,9.00
2019-02-26T11:33:28.066Z,9.10
2019-02-26T11:35:59.534Z,9.20
2019-02-26T11:38:28.240Z,9.20
2019-02-26T11:40:57.468Z,9.30
2019-02-26T11:43:28.940Z,9.40
2019-02-26T11:45:59.176Z,9.50
2019-02-26T11:48:30.915Z,9.50
2019-02-26T11:51:01.076Z,9.60
2019-02-26T11:53:30.498Z,9.60
2019-02-26T11:56:01.855Z,9.70
2019-02-26T11:58:30.692Z,9.70
2019-02-26T12:01:00.382Z,9.80
2019-02-26T12:03:31.103Z,10.00
2019-02-26T12:06:01.955Z,10.00
2019-02-26T12:08:31.495Z,10.10
2019-02-26T12:11:03.524Z,10.20
2019-02-26T12:13:31.750Z,10.20
2019-02-26T12:16:01.003Z,10.30
2019-02-26T12:18:30.225Z,10.30
2019-02-26T12:21:00.202Z,10.40
2019-02-26T12:23:30.406Z,10.40
2019-02-26T12:26:02.077Z,10.50
2019-02-26T12:28:34.179Z,10.50
2019-02-26T12:31:04.031Z,10.50
2019-02-26T12:33:32.655Z,10.70
2019-02-26T12:36:04.405Z,10.90
2019-02-26T12:38:36.549Z,11.00
2019-02-26T12:41:06.805Z,11.10
2019-02-26T12:43:36.796Z,11.20
2019-02-26T12:46:08.338Z,11.20
2019-02-26T12:48:40.504Z,11.20
2019-02-26T12:51:08.452Z,11.30
2019-02-26T12:53:46.785Z,11.30
2019-02-26T12:56:14.850Z,11.30
2019-02-26T12:58:45.217Z,11.30
2019-02-26T13:01:15.227Z,11.30
2019-02-26T13:03:47.250Z,11.30
2019-02-26T13:06:18.526Z,11.40
2019-02-26T13:08:47.652Z,11.40
2019-02-26T13:11:18.292Z,11.40
2019-02-26T13:13:49.645Z,11.40
2019-02-26T13:16:19.377Z,11.40
2019-02-26T13:18:51.371Z,11.40
2019-02-26T13:21:19.602Z,11.40
2019-02-26T13:23:48.865Z,11.40
2019-02-26T13:26:19.705Z,11.40
2019-02-26T13:28:52.791Z,11.50
2019-02-26T13:31:22.535Z,11.60
2019-02-26T13:33:50.942Z,11.70
2019-02-26T13:36:20.857Z,11.80
2019-02-26T13:38:50.097Z,11.80
2019-02-26T13:41:29.508Z,11.90
2019-02-26T13:43:50.560Z,11.90
2019-02-26T13:46:19.859Z,12.00
2019-02-26T13:48:49.094Z,12.00
2019-02-26T13:51:18.401Z,12.00
2019-02-26T13:53:47.638Z,12.10
2019-02-26T13:56:16.893Z,12.10
2019-02-26T13:58:46.234Z,12.20
2019-02-26T14:01:15.631Z,12.20
2019-02-26T14:03:44.885Z,12.20
2019-02-26T14:06:14.143Z,12.30
2019-02-26T14:08:43.447Z,12.30
2019-02-26T14:11:12.709Z,12.30
2019-02-26T14:13:42.033Z,12.30
2019-02-26T14:16:11.263Z,12.30
2019-02-26T14:18:40.487Z,12.40
2019-02-26T14:21:09.746Z,12.40
2019-02-26T14:23:38.998Z,12.40
2019-02-26T14:26:08.240Z,12.40
2019-02-26T14:28:37.486Z,12.40
2019-02-26T14:31:06.753Z,12.50
2019-02-26T14:33:36.262Z,12.50
2019-02-26T14:36:05.496Z,12.70
2019-02-26T14:38:34.746Z,12.80
2019-02-26T14:41:04.076Z,12.80
2019-02-26T14:43:33.384Z,12.80
2019-02-26T14:46:02.646Z,12.80
2019-02-26T14:48:32.006Z,12.80
2019-02-26T14:51:01.260Z,12.80
2019-02-26T14:53:30.526Z,12.80
2019-02-26T14:55:59.817Z,12.80
2019-02-26T14:58:29.106Z,12.80
2019-02-26T15:01:00.353Z,12.80
2019-02-26T15:03:29.321Z,12.70
2019-02-26T15:05:58.632Z,12.70
2019-02-26T15:08:28.168Z,12.70
2019-02-26T15:10:57.433Z,12.70
2019-02-26T15:13:26.724Z,12.80
2019-02-26T15:15:55.969Z,12.80
2019-02-26T15:18:25.216Z,12.80
2019-02-26T15:20:54.520Z,12.80
2019-02-26T15:23:23.784Z,12.90
2019-02-26T15:25:53.017Z,12.90
2019-02-26T15:28:22.241Z,12.90
2019-02-26T15:30:51.487Z,12.90
2019-02-26T15:33:20.754Z,12.90
2019-02-26T15:35:50.072Z,12.90
2019-02-26T15:38:19.338Z,12.90
2019-02-26T15:40:48.579Z,12.70
2019-02-26T15:43:19.504Z,12.90
2019-02-26T15:45:52.048Z,12.90
2019-02-26T15:48:19.673Z,12.80
2019-02-26T15:50:48.943Z,12.90
2019-02-26T15:53:18.196Z,12.90
2019-02-26T15:55:47.514Z,12.80
2019-02-26T15:58:16.902Z,12.80
2019-02-26T16:00:46.172Z,12.80
2019-02-26T16:03:15.454Z,12.70
2019-02-26T16:05:44.763Z,12.70
2019-02-26T16:08:13.981Z,12.60
2019-02-26T16:10:43.227Z,12.50
2019-02-26T16:13:12.496Z,12.40
2019-02-26T16:15:41.713Z,12.40
2019-02-26T16:18:10.990Z,12.30
2019-02-26T16:20:40.320Z,12.20
2019-02-26T16:23:09.672Z,12.20
2019-02-26T16:25:39.034Z,12.10
2019-02-26T16:28:08.444Z,12.00
2019-02-26T16:30:38.079Z,11.90
2019-02-26T16:33:07.398Z,11.70
2019-02-26T16:35:36.680Z,11.60
2019-02-26T16:38:06.014Z,11.60
2019-02-26T16:40:35.254Z,11.40
2019-02-26T16:43:05.042Z,11.30
2019-02-26T16:45:35.202Z,11.20
2019-02-26T16:48:04.717Z,11.10
2019-02-26T16:50:34.450Z,10.90
2019-02-26T16:53:03.954Z,10.70
2019-02-26T16:55:34.267Z,10.60
2019-02-26T16:58:03.592Z,9.70
2019-02-26T17:00:33.312Z,10.20
2019-02-26T17:03:02.623Z,10.10
2019-02-26T17:05:31.890Z,9.90
2019-02-26T17:08:01.139Z,9.80
2019-02-26T17:10:30.721Z,9.70
2019-02-26T17:13:02.283Z,9.60
2019-02-26T17:15:35.044Z,9.50
2019-02-26T17:18:04.634Z,9.40
2019-02-26T17:20:34.460Z,9.30
2019-02-26T17:23:03.766Z,9.20
2019-02-26T17:25:33.082Z,9.00
2019-02-26T17:28:02.314Z,9.00
2019-02-26T17:30:31.638Z,8.90
2019-02-26T17:33:00.892Z,8.80
2019-02-26T17:35:30.130Z,8.70
2019-02-26T17:37:59.400Z,8.70
2019-02-26T17:40:28.702Z,8.60
2019-02-26T17:42:58.356Z,8.50
2019-02-26T17:45:37.341Z,8.50
2019-02-26T17:48:07.138Z,8.40
2019-02-26T17:50:38.109Z,8.40
2019-02-26T17:53:07.663Z,8.50
2019-02-26T17:55:36.887Z,8.50
2019-02-26T17:58:09.877Z,8.50
2019-02-26T18:00:41.445Z,8.40
2019-02-26T18:03:10.729Z,8.40
2019-02-26T18:05:50.641Z,8.40
2019-02-26T18:08:10.875Z,8.30
2019-02-26T18:10:40.129Z,8.30
2019-02-26T18:13:09.372Z,8.20
2019-02-26T18:15:38.635Z,8.20
2019-02-26T18:18:07.858Z,8.10
2019-02-26T18:20:37.184Z,8.10
2019-02-26T18:23:06.449Z,8.00
2019-02-26T18:25:35.694Z,7.90
2019-02-26T18:28:08.679Z,7.90
2019-02-26T18:30:36.029Z,7.80
2019-02-26T18:33:05.345Z,7.70
2019-02-26T18:35:34.587Z,7.70
2019-02-26T18:38:03.854Z,7.60
2019-02-26T18:40:33.090Z,7.60
2019-02-26T18:43:02.353Z,7.60
2019-02-26T18:45:32.102Z,7.60
2019-02-26T18:48:01.454Z,7.50
2019-02-26T18:50:30.773Z,7.50
2019-02-26T18:53:00.003Z,7.50
2019-02-26T18:55:32.315Z,7.40
2019-02-26T18:58:00.214Z,7.40
2019-02-26T19:00:31.629Z,7.30
2019-02-26T19:03:01.015Z,7.30
2019-02-26T19:05:30.493Z,7.30
2019-02-26T19:07:59.808Z,7.20
2019-02-26T19:10:29.063Z,7.20
2019-02-26T19:13:02.449Z,7.20
2019-02-26T19:15:31.609Z,7.10
2019-02-26T19:18:02.651Z,7.10
2019-02-26T19:20:36.726Z,7.00
2019-02-26T19:23:05.975Z,7.00
2019-02-26T19:25:35.203Z,6.90
2019-02-26T19:28:04.430Z,6.90
2019-02-26T19:30:36.775Z,6.90
2019-02-26T19:33:05.556Z,6.80
2019-02-26T19:35:40.027Z,6.80
2019-02-26T19:38:07.405Z,6.70
2019-02-26T19:40:42.138Z,6.70
2019-02-26T19:43:11.508Z,6.60
2019-02-26T19:45:43.810Z,6.60
2019-02-26T19:48:11.730Z,6.60
2019-02-26T19:50:45.626Z,6.60
2019-02-26T19:53:11.938Z,6.50
2019-02-26T19:55:43.627Z,6.50
2019-02-26T19:58:12.939Z,6.50
2019-02-26T20:00:42.186Z,6.40
2019-02-26T20:03:11.411Z,6.40
2019-02-26T20:05:41.282Z,6.30
2019-02-26T20:08:10.793Z,6.30
2019-02-26T20:10:40.035Z,6.30
2019-02-26T20:13:12.461Z,6.20
2019-02-26T20:15:40.286Z,6.20
2019-02-26T20:18:20.263Z,6.20
2019-02-26T20:20:41.215Z,6.10
2019-02-26T20:23:10.549Z,6.10
2019-02-26T20:25:42.549Z,6.10
2019-02-26T20:28:10.743Z,6.10
2019-02-26T20:30:39.976Z,6.00
2019-02-26T20:33:09.249Z,6.00
2019-02-26T20:35:38.491Z,6.00
2019-02-26T20:38:07.736Z,6.00
2019-02-26T20:40:37.047Z,6.00
2019-02-26T20:43:08.272Z,5.90
2019-02-26T20:45:37.556Z,5.90
2019-02-26T20:48:06.809Z,5.90
2019-02-26T20:50:36.034Z,5.80
2019-02-26T20:53:05.920Z,5.80
2019-02-26T20:55:35.897Z,5.70
2019-02-26T20:58:05.275Z,5.70
2019-02-26T21:00:34.781Z,5.70
2019-02-26T21:03:04.849Z,5.70
2019-02-26T21:05:34.700Z,5.60
2019-02-26T21:08:04.176Z,5.60
2019-02-26T21:10:33.515Z,5.60
2019-02-26T21:13:02.850Z,5.50
2019-02-26T21:15:32.118Z,5.50
2019-02-26T21:18:01.448Z,5.50
2019-02-26T21:20:30.726Z,5.60
2019-02-26T21:22:59.950Z,5.60
2019-02-26T21:25:29.176Z,5.60
2019-02-26T21:28:00.612Z,5.70
2019-02-26T21:30:29.524Z,5.70
2019-02-26T21:32:58.817Z,5.80
2019-02-26T21:35:28.032Z,5.80
2019-02-26T21:37:57.316Z,5.80
2019-02-26T21:40:26.647Z,5.90
2019-02-26T21:42:55.910Z,5.90
2019-02-26T21:45:25.218Z,5.90
2019-02-26T21:47:54.469Z,5.90
2019-02-26T21:50:23.719Z,5.90
2019-02-26T21:53:00.248Z,6.00
2019-02-26T21:55:23.903Z,6.00
2019-02-26T21:57:54.823Z,6.00
2019-02-26T22:00:24.335Z,6.00
2019-02-26T22:02:53.553Z,6.00
2019-02-26T22:05:22.858Z,6.00
2019-02-26T22:07:52.953Z,6.00
2019-02-26T22:10:22.788Z,6.00
2019-02-26T22:12:52.050Z,5.90
2019-02-26T22:15:21.303Z,5.80
2019-02-26T22:17:50.582Z,5.70
2019-02-26T22:20:27.532Z,5.70
2019-02-26T22:22:51.387Z,5.60
2019-02-26T22:25:20.685Z,5.60
2019-02-26T22:27:49.961Z,5.60
2019-02-26T22:30:22.100Z,5.60
2019-02-26T22:32:50.791Z,5.60
2019-02-26T22:35:20.035Z,5.60
2019-02-26T22:37:49.268Z,5.60
2019-02-26T22:40:18.509Z,5.60
2019-02-26T22:42:47.732Z,5.60
2019-02-26T22:45:16.993Z,5.60
2019-02-26T22:47:46.285Z,5.70
2019-02-26T22:50:17.453Z,5.70
2019-02-26T22:52:46.683Z,5.70
2019-02-26T22:55:17.621Z,5.80
2019-02-26T22:57:47.034Z,5.80
2019-02-26T23:00:26.535Z,5.80
2019-02-26T23:02:55.837Z,5.90
2019-02-26T23:05:26.104Z,5.90
2019-02-26T23:07:55.537Z,5.70
2019-02-26T23:10:25.285Z,5.90
2019-02-26T23:12:54.759Z,5.90
2019-02-26T23:15:24.026Z,5.90
2019-02-26T23:17:53.337Z,5.90
2019-02-26T23:20:22.583Z,5.90
2019-02-26T23:22:52.031Z,5.90
2019-02-26T23:25:21.597Z,5.80
2019-02-26T23:27:51.013Z,5.80
2019-02-26T23:30:20.381Z,5.80
2019-02-26T23:32:49.685Z,5.70
2019-02-26T23:35:19.304Z,5.70
2019-02-26T23:37:48.676Z,5.70
2019-02-26T23:40:19.155Z,5.70
2019-02-26T23:42:48.776Z,5.60
2019-02-26T23:45:18.175Z,5.60
2019-02-26T23:47:47.537Z,5.50
2019-02-26T23:50:16.881Z,5.40
2019-02-26T23:52:46.139Z,5.30
2019-02-26T23:55:15.499Z,5.30
2019-02-26T23:57:44.740Z,5.20
